Time;durP1;ratioP1;P1;durP2;ratioP2;P2;SDS_P1;SDS_P2;PMS_P1;PMS_P2;Temp;Humidity;BMP_temperature;BMP_pressure;BME280_temperature;BME280_humidity;BME280_pressure;Samples;Min_cycle;Max_cycle;Signal;HPM_P1;HPM_P2
2024/01/12 00:00:18;;;;;;;58.80;18.98;;;1.60;99.90;;;;;;5076668;28;20057;-48
2024/01/12 00:02:44;;;;;;;16.35;6.53;;;1.60;99.90;;;;;;5058957;28;20048;-48
2024/01/12 00:05:10;;;;;;;65.03;15.73;;;1.60;99.90;;;;;;5076755;28;20051;-48
2024/01/12 00:07:35;;;;;;;18.05;6.50;;;1.60;99.90;;;;;;5076607;28;20123;-48
2024/01/12 00:10:01;;;;;;;21.40;7.20;;;1.70;99.90;;;;;;5076578;28;20100;-48
2024/01/12 00:12:27;;;;;;;21.60;8.77;;;1.70;99.90;;;;;;5075425;28;20051;-50
2024/01/12 00:14:52;;;;;;;20.00;8.40;;;1.70;99.90;;;;;;5076590;28;20040;-52
2024/01/12 00:17:18;;;;;;;37.45;14.88;;;1.80;99.90;;;;;;5076549;28;20056;-50
2024/01/12 00:19:47;;;;;;;55.00;19.95;;;1.80;99.90;;;;;;5076395;28;20059;-49
2024/01/12 00:22:13;;;;;;;86.53;33.45;;;1.80;99.90;;;;;;5076736;28;20048;-51
2024/01/12 00:24:38;;;;;;;31.38;13.65;;;1.80;99.90;;;;;;5076304;28;20098;-51
2024/01/12 00:27:04;;;;;;;12.93;6.05;;;1.80;99.90;;;;;;5076221;28;20050;-49
2024/01/12 00:29:30;;;;;;;39.60;16.08;;;1.80;99.90;;;;;;5076272;28;20051;-51
2024/01/12 00:31:56;;;;;;;23.27;10.00;;;1.80;99.90;;;;;;5074904;28;20048;-49
2024/01/12 00:34:21;;;;;;;23.20;10.38;;;1.80;99.90;;;;;;5076099;28;20041;-50
2024/01/12 00:36:53;;;;;;;18.30;8.93;;;1.80;99.90;;;;;;5075254;28;20504;-50
2024/01/12 00:39:19;;;;;;;9.70;5.60;;;1.80;99.90;;;;;;5074490;28;20060;-49
2024/01/12 00:41:47;;;;;;;11.80;5.90;;;1.80;99.90;;;;;;5075939;28;20101;-49
2024/01/12 00:44:12;;;;;;;33.25;14.40;;;1.80;99.90;;;;;;5076056;28;20186;-51
2024/01/12 00:46:38;;;;;;;12.57;6.72;;;1.80;99.90;;;;;;5075769;28;21041;-48
2024/01/12 00:49:04;;;;;;;16.40;8.47;;;1.80;99.90;;;;;;5075899;28;20044;-48
2024/01/12 00:51:29;;;;;;;17.10;8.63;;;1.80;99.90;;;;;;5075770;28;20101;-47
2024/01/12 00:53:55;;;;;;;12.32;6.97;;;1.80;99.90;;;;;;5075963;28;20037;-48
2024/01/12 00:56:20;;;;;;;14.43;6.88;;;1.80;99.90;;;;;;5074660;28;20056;-47
2024/01/12 00:58:46;;;;;;;8.75;4.68;;;1.80;99.90;;;;;;5075801;28;20126;-49
2024/01/12 01:01:12;;;;;;;16.77;7.72;;;1.80;99.90;;;;;;5074675;28;20045;-48
2024/01/12 01:03:38;;;;;;;14.05;6.15;;;1.80;99.90;;;;;;5075445;28;20044;-47
2024/01/12 01:06:04;;;;;;;13.30;5.07;;;1.80;99.90;;;;;;5075403;28;20127;-47
2024/01/12 01:08:30;;;;;;;6.88;3.00;;;1.80;99.90;;;;;;5075564;28;20535;-47
2024/01/12 01:10:56;;;;;;;7.20;3.27;;;1.80;99.90;;;;;;5075510;28;20084;-48
2024/01/12 01:13:22;;;;;;;7.75;3.60;;;1.90;99.90;;;;;;5075363;28;20127;-47
2024/01/12 01:15:48;;;;;;;13.95;5.80;;;1.90;99.90;;;;;;5073953;28;20118;-48
2024/01/12 01:18:15;;;;;;;8.83;3.50;;;1.90;99.90;;;;;;5075483;28;20057;-47
2024/01/12 01:20:41;;;;;;;9.93;4.50;;;1.90;99.90;;;;;;5075266;28;20088;-48
2024/01/12 01:23:06;;;;;;;9.35;3.30;;;1.90;99.90;;;;;;5075463;28;20079;-47
2024/01/12 01:25:32;;;;;;;6.78;2.95;;;1.90;99.90;;;;;;5074282;28;20056;-48
2024/01/12 01:27:58;;;;;;;11.18;3.40;;;1.90;99.90;;;;;;5075005;28;20041;-47
2024/01/12 01:30:24;;;;;;;7.45;3.10;;;1.90;99.90;;;;;;5074965;28;20041;-47
2024/01/12 01:32:50;;;;;;;6.47;2.80;;;1.90;99.90;;;;;;5075127;28;20082;-48
2024/01/12 01:35:16;;;;;;;9.60;2.92;;;1.90;99.90;;;;;;5075414;28;20041;-47
2024/01/12 01:37:43;;;;;;;6.10;3.00;;;1.90;99.90;;;;;;5074951;28;20048;-48
2024/01/12 01:40:08;;;;;;;6.05;2.45;;;1.80;99.90;;;;;;5074658;28;20548;-48
2024/01/12 01:42:34;;;;;;;5.27;2.43;;;1.90;99.90;;;;;;5074828;28;20115;-47
2024/01/12 01:45:01;;;;;;;6.73;2.53;;;1.90;99.90;;;;;;5074707;28;20047;-48
2024/01/12 01:47:28;;;;;;;8.55;3.03;;;1.80;99.90;;;;;;5074843;28;20049;-47
2024/01/12 01:49:55;;;;;;;6.65;3.33;;;1.80;99.90;;;;;;5074274;28;20048;-48
2024/01/12 01:52:22;;;;;;;7.38;2.90;;;1.90;99.90;;;;;;5073167;28;20056;-47
2024/01/12 01:54:48;;;;;;;10.38;3.13;;;1.90;99.90;;;;;;5074358;28;20053;-47
2024/01/12 01:57:14;;;;;;;8.20;3.05;;;1.90;99.90;;;;;;5074460;28;20124;-47
2024/01/12 01:59:41;;;;;;;8.02;3.00;;;1.90;99.90;;;;;;5074327;28;20041;-47
2024/01/12 02:02:08;;;;;;;7.95;3.35;;;1.80;99.90;;;;;;5074441;28;20045;-47
2024/01/12 02:04:34;;;;;;;6.63;3.47;;;1.90;99.90;;;;;;5073456;28;20538;-47
2024/01/12 02:07:01;;;;;;;6.60;3.30;;;1.90;99.90;;;;;;5074619;28;20050;-47
2024/01/12 02:09:28;;;;;;;6.60;3.20;;;2.00;99.90;;;;;;5074496;28;20051;-47
2024/01/12 02:11:54;;;;;;;8.48;3.60;;;1.90;99.90;;;;;;5074130;28;20127;-48
2024/01/12 02:14:20;;;;;;;7.43;3.73;;;1.90;99.90;;;;;;5073904;28;20036;-47
2024/01/12 02:16:46;;;;;;;9.15;3.50;;;1.80;99.90;;;;;;5072946;28;20107;-48
2024/01/12 02:19:12;;;;;;;8.48;3.08;;;2.00;99.90;;;;;;5074177;28;20057;-47
2024/01/12 02:21:38;;;;;;;8.97;3.70;;;2.00;99.90;;;;;;5074183;28;20112;-47
2024/01/12 02:24:04;;;;;;;7.07;3.38;;;2.00;99.90;;;;;;5073936;28;20094;-47
2024/01/12 02:26:29;;;;;;;8.23;3.13;;;2.00;99.90;;;;;;5073904;28;20045;-48
2024/01/12 02:28:56;;;;;;;7.35;3.20;;;1.90;99.90;;;;;;5073830;28;20056;-47
2024/01/12 02:31:22;;;;;;;8.63;2.97;;;2.00;99.90;;;;;;5074029;28;20094;-47
2024/01/12 02:33:49;;;;;;;7.07;3.17;;;2.00;99.90;;;;;;5073913;28;20483;-47
2024/01/12 02:36:15;;;;;;;7.60;2.88;;;1.90;99.90;;;;;;5073946;28;20131;-47
2024/01/12 02:38:40;;;;;;;7.28;3.13;;;1.90;99.90;;;;;;5073849;28;20086;-46
2024/01/12 02:41:06;;;;;;;7.17;3.07;;;1.90;99.90;;;;;;5073811;28;20575;-47
2024/01/12 02:43:32;;;;;;;6.37;2.60;;;1.80;99.90;;;;;;5073623;28;20071;-47
2024/01/12 02:45:57;;;;;;;7.95;3.25;;;1.70;99.90;;;;;;5074005;28;20099;-47
2024/01/12 02:48:23;;;;;;;7.80;2.83;;;1.80;99.90;;;;;;5073988;28;20052;-46
2024/01/12 02:50:49;;;;;;;6.87;2.83;;;1.60;99.90;;;;;;5073881;28;20052;-47
2024/01/12 02:53:14;;;;;;;7.18;3.00;;;1.60;99.90;;;;;;5073740;28;20052;-50
2024/01/12 02:55:40;;;;;;;7.95;3.25;;;1.50;99.90;;;;;;5073585;28;20041;-48
2024/01/12 02:58:06;;;;;;;6.00;3.27;;;1.50;99.90;;;;;;5073546;28;20041;-48
2024/01/12 03:00:31;;;;;;;6.60;3.07;;;1.60;99.90;;;;;;5072703;28;20106;-49
2024/01/12 03:02:57;;;;;;;8.10;2.72;;;1.50;99.90;;;;;;5073453;28;20075;-49
2024/01/12 03:05:23;;;;;;;6.68;3.05;;;1.60;99.90;;;;;;5073820;28;20039;-49
2024/01/12 03:07:49;;;;;;;8.20;3.10;;;1.50;99.90;;;;;;5072627;28;20131;-51
2024/01/12 03:10:17;;;;;;;7.30;2.67;;;1.60;99.90;;;;;;5073399;28;20124;-48
2024/01/12 03:12:42;;;;;;;6.97;2.95;;;1.60;99.90;;;;;;5072493;28;20101;-47
2024/01/12 03:15:08;;;;;;;6.60;2.95;;;1.50;99.90;;;;;;5073391;28;20131;-47
2024/01/12 03:17:34;;;;;;;6.63;2.33;;;1.60;99.90;;;;;;5073351;28;20137;-50
2024/01/12 03:19:59;;;;;;;8.87;3.00;;;1.50;99.90;;;;;;5073615;28;20045;-49
2024/01/12 03:22:25;;;;;;;9.63;2.87;;;1.50;99.90;;;;;;5073423;28;20503;-49
2024/01/12 03:24:51;;;;;;;7.07;2.88;;;1.50;99.90;;;;;;5073297;28;20037;-47
2024/01/12 03:27:16;;;;;;;9.00;3.25;;;1.50;99.90;;;;;;5073047;28;20123;-49
2024/01/12 03:29:42;;;;;;;7.00;3.08;;;1.60;99.90;;;;;;5073396;28;20048;-47
2024/01/12 03:32:08;;;;;;;7.90;2.67;;;1.60;99.90;;;;;;5073481;28;20139;-46
2024/01/12 03:34:33;;;;;;;6.07;3.13;;;1.60;99.90;;;;;;5073098;28;20051;-46
2024/01/12 03:36:59;;;;;;;6.50;3.60;;;1.60;99.90;;;;;;5073448;28;20098;-46
2024/01/12 03:39:25;;;;;;;6.57;2.80;;;1.70;99.90;;;;;;5073231;28;20490;-46
2024/01/12 03:41:50;;;;;;;8.25;2.95;;;1.60;99.90;;;;;;5073205;28;20503;-48
2024/01/12 03:44:16;;;;;;;8.60;3.30;;;1.60;99.90;;;;;;5073226;28;20126;-46
2024/01/12 03:46:42;;;;;;;7.85;2.92;;;1.70;99.90;;;;;;5072199;28;20052;-46
2024/01/12 03:49:07;;;;;;;9.05;2.58;;;1.70;99.90;;;;;;5073285;28;20091;-46
2024/01/12 03:51:33;;;;;;;6.63;3.45;;;1.70;99.90;;;;;;5073192;28;20048;-46
2024/01/12 03:53:58;;;;;;;11.23;3.55;;;1.70;99.90;;;;;;5072961;28;20060;-47
2024/01/12 03:56:24;;;;;;;7.80;2.97;;;1.70;99.90;;;;;;5072994;28;20110;-46
2024/01/12 03:58:50;;;;;;;8.50;3.00;;;1.70;99.90;;;;;;5073074;28;20048;-46
2024/01/12 04:01:15;;;;;;;8.90;3.03;;;1.70;99.90;;;;;;5073054;28;20131;-46
2024/01/12 04:03:41;;;;;;;11.90;2.97;;;1.80;99.90;;;;;;5071797;28;20440;-46
2024/01/12 04:06:10;;;;;;;8.00;3.40;;;1.80;99.90;;;;;;5072798;28;20040;-46
2024/01/12 04:08:36;;;;;;;6.85;2.70;;;1.90;99.90;;;;;;5072813;28;20048;-46
2024/01/12 04:11:02;;;;;;;7.13;3.25;;;1.80;99.90;;;;;;5072716;28;20059;-46
2024/01/12 04:13:28;;;;;;;9.25;3.35;;;1.80;99.90;;;;;;5073084;28;20048;-47
2024/01/12 04:15:53;;;;;;;9.03;2.93;;;1.90;99.90;;;;;;5076573;28;20498;-46
2024/01/12 04:18:20;;;;;;;5.80;2.50;;;1.90;99.90;;;;;;5076599;28;20522;-46
2024/01/12 04:20:46;;;;;;;5.43;2.50;;;1.80;99.90;;;;;;5076462;28;20044;-46
2024/01/12 04:23:11;;;;;;;7.77;3.07;;;1.90;99.90;;;;;;5076242;28;20051;-46
2024/01/12 04:25:37;;;;;;;8.48;2.80;;;1.90;99.90;;;;;;5076236;28;20049;-46
2024/01/12 04:28:03;;;;;;;8.47;2.83;;;1.90;99.90;;;;;;5076386;28;20484;-48
2024/01/12 04:30:28;;;;;;;5.55;2.75;;;1.90;99.90;;;;;;5075159;28;20368;-47
2024/01/12 04:32:54;;;;;;;7.53;2.87;;;1.90;99.90;;;;;;5075017;28;20056;-50
2024/01/12 04:35:20;;;;;;;10.02;3.25;;;1.90;99.90;;;;;;5076061;28;20053;-46
2024/01/12 04:37:45;;;;;;;7.85;2.85;;;1.90;99.90;;;;;;5076120;28;20045;-47
2024/01/12 04:40:11;;;;;;;6.35;2.78;;;1.90;99.90;;;;;;5076035;28;20093;-47
2024/01/12 04:42:37;;;;;;;6.33;2.53;;;1.90;99.90;;;;;;5076108;28;20051;-47
2024/01/12 04:45:03;;;;;;;9.63;3.13;;;2.00;99.90;;;;;;5058365;28;20547;-47
2024/01/12 04:47:29;;;;;;;5.97;2.70;;;1.90;99.90;;;;;;5076028;28;20044;-48
2024/01/12 04:49:55;;;;;;;7.28;2.67;;;1.90;99.90;;;;;;5075021;28;20048;-48
2024/01/12 04:52:21;;;;;;;6.97;2.70;;;1.90;99.90;;;;;;5076060;28;20105;-48
2024/01/12 04:54:47;;;;;;;6.05;2.45;;;1.90;99.90;;;;;;5075564;28;20433;-48
2024/01/12 04:57:13;;;;;;;6.97;2.25;;;1.80;99.90;;;;;;5075554;28;20557;-50
2024/01/12 04:59:40;;;;;;;7.18;2.63;;;1.80;99.90;;;;;;5075698;28;20102;-46
2024/01/12 05:02:07;;;;;;;6.60;2.70;;;1.80;99.90;;;;;;5075577;28;20048;-46
2024/01/12 05:04:32;;;;;;;7.55;2.33;;;1.80;99.90;;;;;;5074922;28;20131;-46
2024/01/12 05:06:58;;;;;;;6.97;2.87;;;1.80;99.90;;;;;;5075611;28;20444;-47
2024/01/12 05:09:24;;;;;;;7.13;1.90;;;1.70;99.90;;;;;;5075145;28;20040;-46
2024/01/12 05:11:49;;;;;;;5.75;2.80;;;1.70;99.90;;;;;;5075500;28;20127;-48
2024/01/12 05:14:15;;;;;;;9.18;3.05;;;1.70;99.90;;;;;;5075694;28;20045;-46
2024/01/12 05:16:41;;;;;;;5.70;2.30;;;1.60;99.90;;;;;;5074328;28;20146;-46
2024/01/12 05:19:08;;;;;;;10.18;2.83;;;1.50;99.90;;;;;;5075287;28;20381;-46
2024/01/12 05:21:34;;;;;;;5.35;2.53;;;1.60;99.90;;;;;;5074999;28;20090;-46
2024/01/12 05:23:59;;;;;;;7.60;2.42;;;1.60;99.90;;;;;;5074964;28;20037;-47
2024/01/12 05:26:25;;;;;;;8.45;2.42;;;1.60;99.90;;;;;;5075110;28;20484;-48
2024/01/12 05:28:51;;;;;;;7.35;2.25;;;1.60;99.90;;;;;;5075165;28;20048;-46
2024/01/12 05:31:16;;;;;;;6.03;2.67;;;1.50;99.90;;;;;;5075264;28;20041;-46
2024/01/12 05:33:42;;;;;;;9.52;2.55;;;1.60;99.90;;;;;;5075246;28;20139;-46
2024/01/12 05:36:08;;;;;;;8.32;2.50;;;1.50;99.90;;;;;;5074921;28;20143;-46
2024/01/12 05:38:33;;;;;;;9.73;2.83;;;1.50;99.90;;;;;;5074722;28;20079;-47
2024/01/12 05:40:59;;;;;;;5.38;2.22;;;1.50;99.90;;;;;;5073685;28;20127;-46
2024/01/12 05:43:26;;;;;;;11.38;2.30;;;1.50;99.90;;;;;;5074819;28;20495;-47
2024/01/12 05:45:52;;;;;;;8.43;2.10;;;1.60;99.90;;;;;;5074849;28;20443;-47
2024/01/12 05:48:17;;;;;;;9.18;2.65;;;1.60;99.90;;;;;;5075091;28;20048;-48
2024/01/12 05:50:43;;;;;;;8.35;2.63;;;1.70;99.90;;;;;;5074613;28;20472;-49
2024/01/12 05:53:08;;;;;;;7.70;2.40;;;1.70;99.90;;;;;;5074489;28;20051;-48
2024/01/12 05:55:34;;;;;;;10.93;2.67;;;1.70;99.90;;;;;;5074204;28;20078;-47
2024/01/12 05:58:00;;;;;;;7.57;2.60;;;1.70;99.90;;;;;;5074618;28;20047;-49
2024/01/12 06:00:25;;;;;;;6.22;2.63;;;1.70;99.90;;;;;;5074440;28;20115;-48
2024/01/12 06:02:51;;;;;;;9.00;2.28;;;1.80;99.90;;;;;;5074599;28;20048;-47
2024/01/12 06:05:17;;;;;;;9.00;2.72;;;1.80;99.90;;;;;;5074457;28;20504;-45
2024/01/12 06:07:43;;;;;;;8.98;2.70;;;1.90;99.90;;;;;;5074185;28;20126;-49
2024/01/12 06:10:09;;;;;;;7.60;2.55;;;1.80;99.90;;;;;;5074124;28;20114;-47
2024/01/12 06:12:34;;;;;;;8.45;2.88;;;1.80;99.90;;;;;;5074283;28;20037;-45
2024/01/12 06:15:01;;;;;;;9.40;2.28;;;1.90;99.90;;;;;;5074154;28;20438;-46
2024/01/12 06:17:26;;;;;;;10.47;2.60;;;1.90;99.90;;;;;;5074006;28;20063;-47
2024/01/12 06:19:52;;;;;;;8.90;2.30;;;1.90;99.90;;;;;;5074134;28;20287;-45
2024/01/12 06:22:18;;;;;;;9.40;2.88;;;1.80;99.90;;;;;;5073968;28;20395;-46
2024/01/12 06:24:44;;;;;;;9.23;2.30;;;1.80;99.90;;;;;;5073931;28;20075;-45
2024/01/12 06:27:10;;;;;;;11.73;2.70;;;1.80;99.90;;;;;;5072948;28;20133;-47
2024/01/12 06:29:36;;;;;;;7.07;2.43;;;1.90;99.90;;;;;;5074301;28;20495;-45
2024/01/12 06:32:05;;;;;;;7.07;2.05;;;1.80;99.90;;;;;;5073982;28;20080;-45
2024/01/12 06:34:30;;;;;;;9.48;2.60;;;1.80;99.90;;;;;;5073908;28;20056;-46
2024/01/12 06:36:57;;;;;;;7.03;3.40;;;2.00;99.90;;;;;;5073371;28;20480;-46
2024/01/12 06:39:23;;;;;;;6.77;2.93;;;1.90;99.90;;;;;;5073714;28;20055;-46
2024/01/12 06:41:48;;;;;;;8.30;2.90;;;1.90;99.90;;;;;;5073825;28;20056;-46
2024/01/12 06:44:14;;;;;;;6.75;2.70;;;1.90;99.90;;;;;;5073816;28;20342;-49
2024/01/12 06:46:43;;;;;;;6.27;2.17;;;1.90;99.90;;;;;;5073516;28;20044;-45
2024/01/12 06:49:09;;;;;;;10.20;2.72;;;1.90;99.90;;;;;;5073738;28;20080;-45
2024/01/12 06:51:35;;;;;;;9.43;3.15;;;2.00;99.90;;;;;;5073811;28;20048;-45
2024/01/12 06:54:01;;;;;;;9.82;2.75;;;2.00;99.90;;;;;;5072159;28;20040;-45
2024/01/12 06:56:27;;;;;;;9.02;2.50;;;2.00;99.90;;;;;;5073843;28;20151;-45
2024/01/12 06:58:52;;;;;;;9.25;2.50;;;2.00;99.90;;;;;;5073963;28;20067;-45
2024/01/12 07:01:19;;;;;;;12.25;2.42;;;2.00;99.90;;;;;;5073757;28;20127;-45
2024/01/12 07:03:45;;;;;;;7.90;2.47;;;2.10;99.90;;;;;;5073557;28;20517;-45
2024/01/12 07:06:11;;;;;;;6.43;2.15;;;2.10;99.90;;;;;;5073367;28;20074;-46
2024/01/12 07:08:37;;;;;;;6.03;2.30;;;2.10;99.90;;;;;;5073636;28;20084;-45
2024/01/12 07:11:04;;;;;;;6.57;2.58;;;2.20;99.90;;;;;;5073535;28;20452;-45
2024/01/12 07:13:30;;;;;;;11.50;4.85;;;2.20;99.90;;;;;;5073432;28;20067;-45
2024/01/12 07:15:56;;;;;;;7.80;2.58;;;2.20;99.90;;;;;;5073503;28;20045;-46
2024/01/12 07:18:22;;;;;;;9.48;2.55;;;2.20;99.90;;;;;;5073657;28;20048;-45
2024/01/12 07:20:47;;;;;;;7.57;2.50;;;2.20;99.90;;;;;;5073496;28;20060;-47
2024/01/12 07:23:13;;;;;;;7.53;2.97;;;2.20;99.90;;;;;;5073164;28;20091;-46
2024/01/12 07:25:38;;;;;;;12.63;2.53;;;2.20;99.90;;;;;;5073433;28;20048;-45
2024/01/12 07:28:07;;;;;;;11.10;2.72;;;2.20;99.90;;;;;;5072506;28;20448;-45
2024/01/12 07:30:33;;;;;;;8.80;2.65;;;2.20;99.90;;;;;;5073736;28;20453;-45
2024/01/12 07:32:59;;;;;;;9.07;2.83;;;2.30;99.90;;;;;;5073491;28;20052;-46
2024/01/12 07:35:25;;;;;;;6.20;2.17;;;2.20;99.90;;;;;;5073157;28;20084;-46
2024/01/12 07:37:51;;;;;;;7.50;2.90;;;2.20;99.90;;;;;;5071883;28;20091;-45
2024/01/12 07:40:17;;;;;;;12.98;2.38;;;2.20;99.90;;;;;;5073582;28;20052;-46
2024/01/12 07:42:43;;;;;;;13.10;2.05;;;2.20;99.90;;;;;;5072476;28;20166;-45
2024/01/12 07:45:11;;;;;;;11.05;2.20;;;2.20;99.90;;;;;;5073281;28;20127;-45
2024/01/12 07:47:36;;;;;;;6.80;1.98;;;2.30;99.90;;;;;;5073094;28;20051;-47
2024/01/12 07:50:02;;;;;;;6.57;1.90;;;2.30;99.90;;;;;;5075740;28;20048;-45
2024/01/12 07:52:28;;;;;;;8.65;1.83;;;2.30;99.90;;;;;;5076816;28;20052;-45
2024/01/12 07:54:54;;;;;;;6.27;1.87;;;2.30;99.90;;;;;;5076964;28;20047;-46
2024/01/12 07:57:20;;;;;;;9.63;1.73;;;2.30;99.90;;;;;;5077169;28;20048;-49
2024/01/12 07:59:45;;;;;;;9.15;1.80;;;2.30;99.90;;;;;;5075578;28;20049;-45
2024/01/12 08:02:11;;;;;;;7.10;1.90;;;2.30;99.90;;;;;;5076894;28;20087;-46
2024/01/12 08:04:40;;;;;;;6.80;1.90;;;2.30;99.90;;;;;;5076842;28;20119;-46
2024/01/12 08:07:06;;;;;;;11.00;2.13;;;2.30;99.90;;;;;;5076672;28;20088;-46
2024/01/12 08:09:32;;;;;;;7.20;1.60;;;2.30;99.90;;;;;;5076837;28;20102;-45
2024/01/12 08:11:58;;;;;;;9.70;1.42;;;2.40;99.90;;;;;;5076614;28;20106;-46
2024/01/12 08:14:23;;;;;;;6.10;1.50;;;2.40;99.90;;;;;;5076808;28;20480;-45
2024/01/12 08:16:49;;;;;;;4.40;1.17;;;2.50;99.90;;;;;;5076564;28;20399;-45
2024/01/12 08:19:15;;;;;;;7.37;1.60;;;2.40;99.90;;;;;;5076325;28;20053;-45
2024/01/12 08:21:41;;;;;;;9.50;2.37;;;2.50;99.90;;;;;;5076751;28;20094;-46
2024/01/12 08:24:07;;;;;;;7.05;1.63;;;2.50;99.90;;;;;;5076489;28;20127;-45
2024/01/12 08:26:33;;;;;;;9.97;2.10;;;2.50;99.90;;;;;;5075262;28;20132;-46
2024/01/12 08:29:01;;;;;;;6.07;1.20;;;2.50;99.90;;;;;;5076285;28;20045;-47
2024/01/12 08:31:28;;;;;;;8.38;1.50;;;2.60;99.90;;;;;;5076260;28;20064;-49
2024/01/12 08:33:54;;;;;;;8.07;1.48;;;2.50;99.90;;;;;;5076142;28;20044;-48
2024/01/12 08:36:20;;;;;;;7.68;1.05;;;2.60;99.90;;;;;;5075316;28;20384;-49
2024/01/12 08:38:45;;;;;;;8.57;1.25;;;2.60;99.90;;;;;;5076283;28;20084;-49
2024/01/12 08:41:11;;;;;;;6.22;1.23;;;2.70;99.90;;;;;;5076198;28;20040;-48
2024/01/12 08:43:37;;;;;;;5.05;0.85;;;2.70;99.90;;;;;;5058569;28;20052;-50
2024/01/12 08:46:03;;;;;;;7.83;1.10;;;2.70;99.90;;;;;;5076009;28;20051;-48
2024/01/12 08:48:29;;;;;;;8.40;1.30;;;2.80;99.90;;;;;;5075871;28;20045;-49
2024/01/12 08:50:55;;;;;;;6.68;0.85;;;2.80;99.90;;;;;;5058434;28;20063;-48
2024/01/12 08:53:20;;;;;;;5.83;0.77;;;2.90;99.90;;;;;;5075977;28;20400;-49
2024/01/12 08:55:46;;;;;;;4.07;1.03;;;2.90;99.90;;;;;;5074707;28;20050;-48
2024/01/12 08:58:12;;;;;;;8.53;1.03;;;2.90;99.90;;;;;;5074792;28;20072;-46
2024/01/12 09:00:37;;;;;;;8.80;1.85;;;3.00;99.90;;;;;;5075538;28;20530;-47
2024/01/12 09:03:03;;;;;;;7.30;1.00;;;2.90;99.90;;;;;;5075768;28;20053;-46
2024/01/12 09:05:29;;;;;;;3.07;0.60;;;2.90;99.90;;;;;;5075744;28;20044;-50
2024/01/12 09:07:55;;;;;;;5.63;0.75;;;3.00;99.90;;;;;;5075686;28;20754;-46
2024/01/12 09:10:20;;;;;;;5.38;0.70;;;2.90;99.90;;;;;;5075939;28;20444;-45
2024/01/12 09:12:46;;;;;;;4.73;0.67;;;2.90;99.90;;;;;;5074368;28;20123;-45
2024/01/12 09:15:11;;;;;;;4.37;0.80;;;3.00;99.90;;;;;;5090979;28;20040;-46
2024/01/12 09:17:37;;;;;;;8.23;0.77;;;3.00;99.90;;;;;;5075106;28;20056;-45
2024/01/12 09:20:03;;;;;;;3.22;0.85;;;3.00;99.90;;;;;;5075170;28;20434;-45
2024/01/12 09:22:29;;;;;;;12.30;1.37;;;3.00;99.90;;;;;;5075324;28;20044;-46
2024/01/12 09:24:55;;;;;;;7.77;1.00;;;3.00;99.90;;;;;;5075596;28;20040;-45
2024/01/12 09:27:21;;;;;;;4.60;0.90;;;3.00;99.90;;;;;;5074090;28;20041;-46
2024/01/12 09:29:47;;;;;;;8.52;0.98;;;2.90;99.90;;;;;;5075262;28;20045;-47
2024/01/12 09:32:12;;;;;;;7.87;1.37;;;3.00;99.90;;;;;;5075073;28;20048;-45
2024/01/12 09:34:38;;;;;;;6.40;0.90;;;3.00;99.90;;;;;;5074777;28;20068;-47
2024/01/12 09:37:04;;;;;;;9.40;1.10;;;3.00;99.90;;;;;;5074205;28;20048;-46
2024/01/12 09:39:30;;;;;;;8.83;0.80;;;3.10;99.90;;;;;;5075057;28;20369;-45
2024/01/12 09:42:02;;;;;;;5.47;0.97;;;3.10;99.90;;;;;;5074923;28;20058;-46
2024/01/12 09:44:29;;;;;;;7.63;1.15;;;3.10;99.90;;;;;;5074930;28;20302;-46
2024/01/12 09:46:58;;;;;;;;;;;3.10;99.90;;;;;;5073922;28;20454;-45
2024/01/12 09:49:27;;;;;;;3.20;0.95;;;3.20;99.90;;;;;;5073890;28;19925;-46
2024/01/12 09:51:53;;;;;;;6.20;0.90;;;3.10;99.90;;;;;;5075081;28;20048;-46
2024/01/12 09:54:19;;;;;;;9.30;1.17;;;3.20;99.90;;;;;;5074901;28;20533;-46
2024/01/12 09:56:45;;;;;;;7.75;1.52;;;3.20;99.90;;;;;;5074577;28;20098;-46
2024/01/12 09:59:11;;;;;;;4.03;0.85;;;3.20;99.90;;;;;;5074449;28;20128;-46
2024/01/12 10:01:40;;;;;;;6.80;0.95;;;3.20;99.90;;;;;;5074495;28;20128;-46
2024/01/12 10:04:06;;;;;;;4.28;1.00;;;3.20;99.90;;;;;;5074553;28;20064;-46
2024/01/12 10:06:32;;;;;;;7.68;0.82;;;3.30;99.90;;;;;;5075028;28;20124;-46
2024/01/12 10:08:58;;;;;;;10.65;1.15;;;3.20;99.90;;;;;;5074339;28;20587;-46
2024/01/12 10:11:24;;;;;;;4.73;0.80;;;3.30;99.90;;;;;;5073634;28;20048;-46
2024/01/12 10:13:50;;;;;;;5.78;0.95;;;3.30;99.90;;;;;;5074197;28;20476;-45
2024/01/12 10:16:17;;;;;;;6.97;0.90;;;3.30;99.90;;;;;;5073069;28;20051;-46
2024/01/12 10:18:42;;;;;;;11.82;1.10;;;3.30;99.90;;;;;;5074296;28;20133;-45
2024/01/12 10:21:08;;;;;;;3.60;0.73;;;3.30;99.90;;;;;;5074153;28;20140;-45
2024/01/12 10:23:34;;;;;;;5.88;1.13;;;3.30;99.90;;;;;;5074186;28;20488;-46
2024/01/12 10:26:03;;;;;;;6.03;0.93;;;3.30;99.90;;;;;;5074077;28;20049;-46
2024/01/12 10:28:33;;;;;;;4.53;0.80;;;3.30;99.90;;;;;;5074196;28;20618;-45
2024/01/12 10:31:04;;;;;;;5.95;0.98;;;3.30;99.90;;;;;;5072991;28;20095;-46
2024/01/12 10:33:30;;;;;;;4.68;1.17;;;3.40;99.90;;;;;;5074427;28;20093;-45
2024/01/12 10:36:22;;;;;;;5.45;0.85;;;3.40;99.90;;;;;;5073967;28;20127;-47
2024/01/12 10:38:49;;;;;;;5.07;1.00;;;3.40;99.90;;;;;;5072745;28;20476;-46
2024/01/12 10:41:24;;;;;;;3.13;0.60;;;3.40;99.90;;;;;;5072638;28;20048;-46
2024/01/12 10:43:54;;;;;;;5.78;0.88;;;3.50;99.90;;;;;;5073914;28;20502;-45
2024/01/12 10:46:27;;;;;;;3.83;1.00;;;3.40;99.90;;;;;;5073811;28;20056;-46
2024/01/12 10:49:06;;;;;;;2.65;0.60;;;3.50;99.90;;;;;;5073119;28;20052;-45
2024/01/12 10:51:37;;;;;;;8.25;1.08;;;3.40;99.90;;;;;;5073801;28;20538;-46
2024/01/12 10:54:17;;;;;;;10.38;1.10;;;3.40;99.90;;;;;;5073745;28;20377;-46
2024/01/12 10:56:44;;;;;;;8.30;1.45;;;3.40;99.90;;;;;;5074051;28;20127;-45
2024/01/12 10:59:12;;;;;;;6.38;0.70;;;3.40;99.90;;;;;;5073798;28;20443;-47
2024/01/12 11:01:39;;;;;;;4.68;0.90;;;3.50;99.90;;;;;;5073633;28;20078;-46
2024/01/12 11:04:05;;;;;;;6.18;1.15;;;3.50;99.90;;;;;;5073485;28;20047;-48
2024/01/12 11:06:31;;;;;;;9.87;1.30;;;3.50;99.90;;;;;;5073400;28;20052;-46
2024/01/12 11:08:57;;;;;;;11.57;1.45;;;3.50;99.90;;;;;;5072431;28;20048;-45
2024/01/12 11:11:31;;;;;;;9.10;1.10;;;3.60;99.90;;;;;;5073604;28;20063;-45
2024/01/12 11:13:58;;;;;;;10.70;1.65;;;3.60;99.90;;;;;;5073534;28;20084;-47
2024/01/12 11:16:24;;;;;;;9.30;1.38;;;3.60;99.90;;;;;;5073356;28;20054;-50
2024/01/12 11:18:50;;;;;;;6.80;1.77;;;3.60;99.90;;;;;;5073493;28;20447;-50
2024/01/12 11:21:25;;;;;;;11.90;1.15;;;3.60;99.90;;;;;;5073955;28;20321;-46
2024/01/12 11:23:52;;;;;;;5.43;1.20;;;3.60;99.90;;;;;;5076091;28;20094;-49
2024/01/12 11:26:19;;;;;;;8.95;0.98;;;3.70;99.90;;;;;;5077456;28;20052;-48
2024/01/12 11:28:45;;;;;;;6.25;1.10;;;3.70;99.90;;;;;;5077448;28;20048;-48
2024/01/12 11:31:11;;;;;;;7.53;0.98;;;3.70;99.90;;;;;;5077347;28;20058;-49
2024/01/12 11:33:42;;;;;;;5.77;1.10;;;3.70;99.90;;;;;;5077414;28;20044;-47
2024/01/12 11:36:15;;;;;;;11.80;2.90;;;3.80;99.90;;;;;;5077967;28;20051;-47
2024/01/12 11:38:42;;;;;;;6.72;1.17;;;3.80;99.90;;;;;;5077349;28;20049;-49
2024/01/12 11:41:11;;;;;;;10.43;1.38;;;3.80;99.90;;;;;;5077308;28;20535;-49
2024/01/12 11:43:38;;;;;;;5.93;0.95;;;3.80;99.90;;;;;;5077216;28;20140;-47
2024/01/12 11:46:05;;;;;;;12.43;1.80;;;3.80;99.90;;;;;;5077144;28;20040;-46
2024/01/12 11:48:30;;;;;;;;;;;3.80;99.90;;;;;;5077620;28;20052;-48
2024/01/12 11:50:56;;;;;;;11.80;1.65;;;3.90;99.90;;;;;;5077100;28;19921;-46
2024/01/12 11:53:22;;;;;;;7.72;1.20;;;3.90;99.90;;;;;;5077063;28;20040;-45
2024/01/12 11:55:48;;;;;;;14.07;1.47;;;3.90;99.90;;;;;;5076953;28;20043;-46
2024/01/12 11:58:14;;;;;;;8.05;1.52;;;3.90;99.90;;;;;;5076813;28;20055;-46
2024/01/12 12:00:39;;;;;;;8.50;1.42;;;3.90;99.90;;;;;;5076838;28;20044;-46
2024/01/12 12:03:05;;;;;;;7.07;1.20;;;3.90;99.90;;;;;;5076940;28;20048;-45
2024/01/12 12:05:31;;;;;;;7.80;1.43;;;3.90;99.90;;;;;;5076593;28;20044;-46
2024/01/12 12:07:57;;;;;;;19.67;1.87;;;3.90;99.90;;;;;;5076821;28;20044;-45
2024/01/12 12:10:25;;;;;;;7.80;1.33;;;3.90;99.90;;;;;;5076965;28;20446;-46
2024/01/12 12:12:50;;;;;;;6.53;1.30;;;3.90;99.90;;;;;;5076551;28;20052;-46
2024/01/12 12:15:16;;;;;;;9.05;0.90;;;3.90;99.90;;;;;;5076367;28;20479;-46
2024/01/12 12:17:45;;;;;;;7.33;1.23;;;3.90;99.90;;;;;;5075107;28;20053;-46
2024/01/12 12:20:12;;;;;;;8.88;1.30;;;3.90;99.90;;;;;;5076558;28;20121;-46
2024/01/12 12:22:42;;;;;;;8.80;1.25;;;3.90;99.90;;;;;;5076706;28;20059;-46
2024/01/12 12:25:09;;;;;;;12.27;1.20;;;4.00;99.90;;;;;;5076382;28;20048;-48
2024/01/12 12:27:36;;;;;;;9.15;2.53;;;4.00;99.90;;;;;;5076486;28;20044;-45
2024/01/12 12:30:04;;;;;;;11.02;1.75;;;4.00;99.90;;;;;;5075161;28;20052;-46
2024/01/12 12:32:30;;;;;;;6.72;1.20;;;4.00;99.90;;;;;;5076334;28;20051;-45
2024/01/12 12:34:56;;;;;;;7.75;1.25;;;4.00;99.90;;;;;;5075433;28;20040;-46
2024/01/12 12:37:22;;;;;;;9.17;1.47;;;4.00;99.90;;;;;;5075974;28;20059;-45
2024/01/12 12:39:47;;;;;;;14.88;2.28;;;4.00;99.90;;;;;;5076075;28;20044;-45
2024/01/12 12:42:13;;;;;;;7.47;1.57;;;4.00;99.90;;;;;;5076093;28;20041;-47
2024/01/12 12:44:39;;;;;;;11.53;1.30;;;4.00;99.90;;;;;;5075898;28;20446;-45
2024/01/12 12:47:05;;;;;;;11.23;1.58;;;4.00;99.90;;;;;;5076041;28;20476;-46
2024/01/12 12:49:42;;;;;;;12.33;1.40;;;3.90;99.90;;;;;;5075100;28;20103;-46